Time;durP1;ratioP1;P1;durP2;ratioP2;P2;SDS_P1;SDS_P2;PMS_P1;PMS_P2;Temp;Humidity;BMP_temperature;BMP_pressure;BME280_temperature;BME280_humidity;BME280_pressure;Samples;Min_cycle;Max_cycle;Signal;HPM_P1;HPM_P2
2023/01/15 00:01:04;;;;;;;1999.90;999.90;;;9.40;99.90;;;;;;5012620;28;20026;-79
2023/01/15 00:03:30;;;;;;;1999.90;999.90;;;9.40;99.90;;;;;;5012337;28;20041;-79
2023/01/15 00:06:01;;;;;;;1999.90;999.90;;;9.30;99.90;;;;;;5012133;28;20048;-79
2023/01/15 00:08:27;;;;;;;1999.90;999.90;;;9.30;99.90;;;;;;5012071;28;20088;-79
2023/01/15 00:10:55;;;;;;;1999.90;999.90;;;9.30;99.90;;;;;;5012563;28;20393;-79
2023/01/15 00:13:20;;;;;;;1999.90;999.90;;;9.40;99.90;;;;;;5011447;28;20517;-79
2023/01/15 00:15:46;;;;;;;1999.90;999.90;;;9.40;99.90;;;;;;5012230;28;20052;-79
2023/01/15 00:18:11;;;;;;;1999.90;999.90;;;9.40;99.90;;;;;;5012157;28;20405;-79
2023/01/15 00:20:37;;;;;;;1999.90;999.90;;;9.40;99.90;;;;;;5007273;28;20041;-79
2023/01/15 00:23:03;;;;;;;1999.90;999.90;;;9.40;99.90;;;;;;5012042;28;20037;-79
2023/01/15 00:28:13;;;;;;;1999.90;999.90;;;9.40;99.90;;;;;;5015595;28;20133;-79
2023/01/15 00:30:41;;;;;;;1999.90;999.90;;;9.40;99.90;;;;;;5016139;28;20064;-79
2023/01/15 00:33:07;;;;;;;1999.90;999.90;;;9.40;99.90;;;;;;5014449;28;20053;-79
2023/01/15 00:35:33;;;;;;;1999.90;999.90;;;9.30;99.90;;;;;;5015797;28;20025;-79
2023/01/15 00:37:59;;;;;;;1999.90;999.90;;;9.30;99.90;;;;;;5015605;28;20481;-79
2023/01/15 00:40:24;;;;;;;1999.90;999.90;;;9.30;99.90;;;;;;5015555;28;20044;-79
2023/01/15 00:42:50;;;;;;;1999.90;999.90;;;9.20;99.90;;;;;;5015603;28;20026;-79
2023/01/15 00:45:16;;;;;;;1999.90;999.90;;;9.20;99.90;;;;;;5014334;28;20026;-79
2023/01/15 00:47:43;;;;;;;1999.90;999.90;;;9.10;99.90;;;;;;5014344;28;20030;-79
2023/01/15 00:50:11;;;;;;;1999.90;999.90;;;9.10;99.90;;;;;;5014962;28;20397;-79
2023/01/15 00:52:37;;;;;;;1999.90;999.90;;;9.10;99.90;;;;;;5013596;28;20440;-79
2023/01/15 00:55:04;;;;;;;1999.90;999.90;;;9.00;99.90;;;;;;4994869;28;20057;-79
2023/01/15 00:57:29;;;;;;;1999.90;999.90;;;9.00;99.90;;;;;;5002603;28;20025;-79
2023/01/15 00:59:55;;;;;;;1999.90;999.90;;;8.90;99.90;;;;;;5015052;28;20041;-79
2023/01/15 01:02:21;;;;;;;1999.90;999.90;;;8.90;99.90;;;;;;5015156;28;20034;-79
2023/01/15 01:04:46;;;;;;;1999.90;999.90;;;8.90;99.90;;;;;;5014060;28;20125;-79
2023/01/15 01:07:12;;;;;;;1999.90;999.90;;;8.90;99.90;;;;;;5015076;28;20037;-79
2023/01/15 01:09:38;;;;;;;1999.90;999.90;;;8.90;99.90;;;;;;5013528;28;20022;-79
2023/01/15 01:12:04;;;;;;;1999.90;999.90;;;9.00;99.90;;;;;;5013141;28;20034;-79
2023/01/15 01:14:30;;;;;;;1999.90;999.90;;;9.00;99.90;;;;;;5014846;28;20096;-79
2023/01/15 01:16:56;;;;;;;1999.90;999.90;;;9.00;99.90;;;;;;5014513;28;20400;-79
2023/01/15 01:19:23;;;;;;;1999.90;999.90;;;8.90;99.90;;;;;;5010044;28;20026;-79
2023/01/15 01:21:49;;;;;;;1999.90;999.90;;;8.90;99.90;;;;;;5014444;28;20432;-79
2023/01/15 01:24:20;;;;;;;1999.90;999.90;;;8.80;99.90;;;;;;5013149;28;20036;-79
2023/01/15 01:26:47;;;;;;;1999.90;999.90;;;8.90;99.90;;;;;;5014454;28;20032;-79
2023/01/15 01:29:14;;;;;;;1999.90;999.90;;;8.90;99.90;;;;;;5013026;28;20409;-79
2023/01/15 01:31:40;;;;;;;1999.90;999.90;;;8.90;99.90;;;;;;5014618;28;20026;-79
2023/01/15 01:34:06;;;;;;;1999.90;999.90;;;8.80;99.90;;;;;;5014575;28;20028;-79
2023/01/15 01:36:37;;;;;;;1999.90;999.90;;;8.80;99.90;;;;;;5013280;28;20045;-80
2023/01/15 01:39:04;;;;;;;1999.90;999.90;;;8.70;99.90;;;;;;5014897;28;20029;-79
2023/01/15 01:41:31;;;;;;;1999.90;999.90;;;8.70;99.90;;;;;;5014094;28;20022;-80
2023/01/15 01:43:59;;;;;;;1999.90;999.90;;;8.70;99.90;;;;;;5014272;28;20065;-80
2023/01/15 01:46:26;;;;;;;1999.90;999.90;;;8.70;99.90;;;;;;5014307;28;20077;-79
2023/01/15 01:49:05;;;;;;;1999.90;999.90;;;8.70;99.90;;;;;;5014307;28;20061;-79
2023/01/15 01:51:36;;;;;;;1999.90;999.90;;;8.70;99.90;;;;;;5013462;28;20021;-79
2023/01/15 01:54:02;;;;;;;1999.90;999.90;;;8.70;99.90;;;;;;5000546;28;20031;-79
2023/01/15 01:56:32;;;;;;;1999.90;999.90;;;8.60;99.90;;;;;;4994430;28;20050;-79
2023/01/15 01:58:58;;;;;;;1999.90;999.90;;;8.60;99.90;;;;;;5013928;28;20040;-79
2023/01/15 02:01:25;;;;;;;1999.90;999.90;;;8.50;99.90;;;;;;5014025;28;20475;-79
2023/01/15 02:03:52;;;;;;;1999.90;999.90;;;8.60;99.90;;;;;;5012797;28;20061;-79
2023/01/15 02:06:17;;;;;;;1999.90;999.90;;;8.60;99.90;;;;;;5013731;28;20121;-79
2023/01/15 02:08:43;;;;;;;1999.90;999.90;;;8.60;99.90;;;;;;5012851;28;20038;-79
2023/01/15 02:11:15;;;;;;;1999.90;999.90;;;8.60;99.90;;;;;;5012272;28;20084;-79
2023/01/15 02:13:49;;;;;;;1999.90;999.90;;;8.60;99.90;;;;;;5012491;28;20405;-79
2023/01/15 02:16:24;;;;;;;1999.90;999.90;;;8.40;99.90;;;;;;5013573;28;20539;-79
2023/01/15 02:18:52;;;;;;;1999.90;999.90;;;8.30;99.90;;;;;;5007908;28;20391;-79
2023/01/15 02:21:45;;;;;;;1999.90;999.90;;;8.20;99.90;;;;;;5011324;28;20085;-79
2023/01/15 02:24:39;;;;;;;1999.90;999.90;;;8.10;99.90;;;;;;5013616;28;20037;-79
2023/01/15 02:27:15;;;;;;;1999.90;999.90;;;8.00;99.90;;;;;;5010660;28;20077;-79
2023/01/15 02:29:48;;;;;;;1999.90;999.90;;;8.00;99.90;;;;;;5013507;28;20440;-79
2023/01/15 02:32:39;;;;;;;1999.90;999.90;;;8.10;99.90;;;;;;5012281;28;20022;-79
2023/01/15 02:35:30;;;;;;;1999.90;999.90;;;8.10;99.90;;;;;;5013614;28;20057;-79
2023/01/15 02:37:59;;;;;;;1999.90;999.90;;;8.20;99.90;;;;;;5013211;28;20026;-79
2023/01/15 02:40:27;;;;;;;1999.90;999.90;;;8.20;99.90;;;;;;5013538;28;20481;-79
2023/01/15 02:42:54;;;;;;;1999.90;999.90;;;8.20;99.90;;;;;;5011892;28;20444;-79
2023/01/15 02:45:25;;;;;;;1999.90;999.90;;;8.20;99.90;;;;;;5013275;28;20493;-79
2023/01/15 02:47:55;;;;;;;1999.90;999.90;;;8.20;99.90;;;;;;5012527;28;20030;-79
2023/01/15 02:50:27;;;;;;;1999.90;999.90;;;8.20;99.90;;;;;;5011863;28;20493;-79
2023/01/15 02:52:59;;;;;;;1999.90;999.90;;;8.20;99.90;;;;;;5008422;28;20102;-78
2023/01/15 02:55:28;;;;;;;1999.90;999.90;;;8.20;99.90;;;;;;4993331;28;20512;-77
2023/01/15 02:57:59;;;;;;;1999.90;999.90;;;8.30;99.90;;;;;;5003704;28;20030;-77
2023/01/15 03:00:28;;;;;;;1999.90;999.90;;;8.30;99.90;;;;;;5013152;28;20033;-77
2023/01/15 03:03:22;;;;;;;1999.90;999.90;;;8.30;99.90;;;;;;5013018;28;20515;-76
2023/01/15 03:05:52;;;;;;;1999.90;999.90;;;8.30;99.90;;;;;;4998008;28;20546;-76
2023/01/15 03:08:18;;;;;;;1999.90;999.90;;;8.20;99.90;;;;;;5020409;28;20026;-76
2023/01/15 03:10:49;;;;;;;1999.90;999.90;;;8.10;99.90;;;;;;5034424;28;20065;-76
2023/01/15 03:13:31;;;;;;;1999.90;999.90;;;8.00;99.90;;;;;;5034049;28;20030;-76
2023/01/15 03:18:57;;;;;;;1999.90;999.90;;;7.80;99.90;;;;;;5021481;28;20044;-76
2023/01/15 03:21:34;;;;;;;1999.90;999.90;;;7.80;99.90;;;;;;4992749;28;20068;-79
2023/01/15 03:24:03;;;;;;;1999.90;999.90;;;7.70;99.90;;;;;;4992234;28;20634;-79
2023/01/15 03:26:28;;;;;;;1999.90;999.90;;;7.70;99.90;;;;;;4993151;28;20117;-79
2023/01/15 03:28:55;;;;;;;1999.90;999.90;;;7.60;99.90;;;;;;4993751;28;20109;-79
2023/01/15 03:31:21;;;;;;;1999.90;999.90;;;7.70;99.90;;;;;;4993074;28;20018;-79
2023/01/15 03:33:47;;;;;;;1999.90;999.90;;;7.60;99.90;;;;;;4993173;28;20444;-79
2023/01/15 03:36:12;;;;;;;1999.90;999.90;;;7.60;99.90;;;;;;4993378;28;20014;-79
2023/01/15 03:38:39;;;;;;;1999.90;999.90;;;7.70;99.90;;;;;;5001163;28;20030;-79
2023/01/15 03:41:27;;;;;;;1999.90;999.90;;;7.70;99.90;;;;;;4995375;28;20029;-79
2023/01/15 03:44:23;;;;;;;1999.90;999.90;;;7.70;99.90;;;;;;4995479;28;20029;-79
2023/01/15 03:47:15;;;;;;;1999.90;999.90;;;7.70;99.90;;;;;;4972519;28;20539;-79
2023/01/15 03:50:03;;;;;;;1999.90;999.90;;;7.70;99.90;;;;;;5015292;28;20034;-79
2023/01/15 03:52:42;;;;;;;1999.90;999.90;;;7.80;99.90;;;;;;5008164;28;20088;-79
2023/01/15 03:55:10;;;;;;;1999.90;999.90;;;7.80;99.90;;;;;;4995030;28;20437;-79
2023/01/15 03:58:04;;;;;;;1999.90;999.90;;;7.80;99.90;;;;;;5001011;28;20028;-79
2023/01/15 04:00:35;;;;;;;1999.90;999.90;;;7.90;99.90;;;;;;5016548;28;20034;-79
2023/01/15 04:03:02;;;;;;;1999.90;999.90;;;7.90;99.90;;;;;;5018065;28;20041;-79
2023/01/15 04:05:30;;;;;;;1999.90;999.90;;;8.00;99.90;;;;;;5017782;28;20057;-79
2023/01/15 04:07:57;;;;;;;1999.90;999.90;;;8.00;99.90;;;;;;5018283;28;20393;-79
2023/01/15 04:10:23;;;;;;;1999.90;999.90;;;8.00;99.90;;;;;;5018854;28;20478;-79
2023/01/15 04:12:49;;;;;;;1999.90;999.90;;;7.90;99.90;;;;;;5018694;28;20022;-79
2023/01/15 04:15:15;;;;;;;1999.90;999.90;;;7.80;99.90;;;;;;5019291;28;20041;-79
2023/01/15 04:17:41;;;;;;;1999.90;999.90;;;7.70;99.90;;;;;;5018627;28;20026;-79
2023/01/15 04:20:07;;;;;;;1999.90;999.90;;;7.70;99.90;;;;;;5008411;28;20068;-79
2023/01/15 04:22:34;;;;;;;1999.90;999.90;;;7.60;99.90;;;;;;5019938;28;20034;-79
2023/01/15 04:25:01;;;;;;;1999.90;999.90;;;7.60;99.90;;;;;;5019213;28;20381;-79
2023/01/15 04:27:27;;;;;;;1999.90;999.90;;;7.60;99.90;;;;;;5017477;28;20026;-79
2023/01/15 04:29:53;;;;;;;1999.90;999.90;;;7.60;99.90;;;;;;5017963;28;20026;-79
2023/01/15 04:32:19;;;;;;;1999.90;999.90;;;7.60;99.90;;;;;;5018774;28;20022;-79
2023/01/15 04:34:44;;;;;;;1999.90;999.90;;;7.60;99.90;;;;;;5019899;28;20497;-79
2023/01/15 04:37:10;;;;;;;1999.90;999.90;;;7.60;99.90;;;;;;5022291;28;20068;-79
2023/01/15 04:39:35;;;;;;;1999.90;999.90;;;7.60;99.90;;;;;;5021415;28;20083;-79
2023/01/15 04:44:45;;;;;;;1999.90;999.90;;;7.70;99.90;;;;;;5023056;28;20076;-78
2023/01/15 04:47:11;;;;;;;1999.90;999.90;;;7.70;99.90;;;;;;5023770;28;20105;-79
2023/01/15 04:49:36;;;;;;;1999.90;999.90;;;7.70;99.90;;;;;;5022917;28;20405;-79
2023/01/15 04:52:02;;;;;;;1999.90;999.90;;;7.70;99.90;;;;;;5022958;28;20022;-79
2023/01/15 04:54:28;;;;;;;1999.90;999.90;;;7.70;99.90;;;;;;5010351;28;20074;-79
2023/01/15 04:56:54;;;;;;;1999.90;999.90;;;7.70;99.90;;;;;;5007363;28;20023;-79
2023/01/15 04:59:25;;;;;;;1999.90;999.90;;;7.80;99.90;;;;;;5023752;28;20027;-79
2023/01/15 05:01:51;;;;;;;1999.90;999.90;;;7.80;99.90;;;;;;5019966;28;20018;-79
2023/01/15 05:04:17;;;;;;;1999.90;999.90;;;7.90;99.90;;;;;;5022127;28;20034;-79
2023/01/15 05:06:43;;;;;;;1999.90;999.90;;;8.00;99.90;;;;;;5021420;28;20014;-79
2023/01/15 05:09:08;;;;;;;1999.90;999.90;;;8.00;99.90;;;;;;5020609;28;20034;-79
2023/01/15 05:11:39;;;;;;;1999.90;999.90;;;8.10;99.90;;;;;;5017964;28;20042;-79
2023/01/15 05:14:06;;;;;;;1999.90;999.90;;;8.10;99.90;;;;;;5015103;28;20540;-79
2023/01/15 05:16:32;;;;;;;1999.90;999.90;;;7.60;99.90;;;;;;5015133;28;20018;-79
2023/01/15 05:19:01;;;;;;;1999.90;999.90;;;7.20;99.90;;;;;;5011102;28;20021;-79
2023/01/15 05:21:30;;;;;;;1999.90;999.90;;;7.10;99.90;;;;;;5016808;28;20048;-78
2023/01/15 05:23:56;;;;;;;1999.90;999.90;;;6.80;99.90;;;;;;5017279;28;20033;-79
2023/01/15 05:26:23;;;;;;;1999.90;999.90;;;6.80;99.90;;;;;;5016073;28;20071;-79
2023/01/15 05:28:52;;;;;;;1999.90;999.90;;;6.70;99.90;;;;;;5017533;28;20095;-79
2023/01/15 05:31:19;;;;;;;1999.90;999.90;;;6.70;99.90;;;;;;5016045;28;20554;-79
2023/01/15 05:33:46;;;;;;;1999.90;999.90;;;6.70;99.90;;;;;;5017391;28;20026;-79
2023/01/15 05:36:14;;;;;;;1999.90;999.90;;;6.70;99.90;;;;;;5017604;28;20493;-79
2023/01/15 05:38:40;;;;;;;1999.90;999.90;;;6.60;99.90;;;;;;5019297;28;20026;-78
2023/01/15 05:43:54;;;;;;;1999.90;999.90;;;6.60;99.90;;;;;;5021185;28;20036;-79
2023/01/15 05:46:20;;;;;;;1999.90;999.90;;;6.60;99.90;;;;;;5022528;28;20048;-79
2023/01/15 05:48:46;;;;;;;1999.90;999.90;;;6.60;99.90;;;;;;5023457;28;20030;-79
2023/01/15 05:51:11;;;;;;;1999.90;999.90;;;6.60;99.90;;;;;;5025671;28;20082;-79
2023/01/15 05:53:37;;;;;;;1999.90;999.90;;;6.60;99.90;;;;;;5013102;28;20091;-79
2023/01/15 05:56:04;;;;;;;1999.90;999.90;;;6.60;99.90;;;;;;5004788;28;20037;-79
2023/01/15 05:58:30;;;;;;;1999.90;999.90;;;6.60;99.90;;;;;;5020192;28;20026;-79
2023/01/15 06:00:56;;;;;;;1999.90;999.90;;;6.60;99.90;;;;;;5025846;28;20085;-79
2023/01/15 06:03:23;;;;;;;1999.90;999.90;;;6.60;99.90;;;;;;5026235;28;20505;-79
2023/01/15 06:05:52;;;;;;;1999.90;999.90;;;6.60;99.90;;;;;;5025061;28;20420;-79
2023/01/15 06:08:18;;;;;;;1999.90;999.90;;;6.60;99.90;;;;;;5026291;28;20022;-79
2023/01/15 06:10:44;;;;;;;1999.90;999.90;;;6.60;99.90;;;;;;5026512;28;20040;-79
2023/01/15 06:13:10;;;;;;;1999.90;999.90;;;6.60;99.90;;;;;;5027526;28;20022;-79
2023/01/15 06:15:35;;;;;;;1999.90;999.90;;;6.60;99.90;;;;;;5028051;28;20030;-79
2023/01/15 06:18:01;;;;;;;1999.90;999.90;;;6.60;99.90;;;;;;5027081;28;20451;-79
2023/01/15 06:20:27;;;;;;;1999.90;999.90;;;6.50;99.90;;;;;;5021812;28;20059;-79
2023/01/15 06:22:52;;;;;;;1999.90;999.90;;;6.50;99.90;;;;;;5030652;28;20029;-79
2023/01/15 06:25:18;;;;;;;1999.90;999.90;;;6.50;99.90;;;;;;5031046;28;20022;-79
2023/01/15 06:27:43;;;;;;;1999.90;999.90;;;6.50;99.90;;;;;;5030917;28;20056;-79
2023/01/15 06:30:10;;;;;;;1999.90;999.90;;;6.50;99.90;;;;;;5030166;28;20473;-79
2023/01/15 06:32:36;;;;;;;1999.90;999.90;;;6.60;99.90;;;;;;5031356;28;20018;-79
2023/01/15 06:35:02;;;;;;;1999.90;999.90;;;6.60;99.90;;;;;;5032948;28;20041;-78
2023/01/15 06:37:27;;;;;;;1999.90;999.90;;;6.60;99.90;;;;;;5014006;28;20025;-79
2023/01/15 06:39:53;;;;;;;1999.90;999.90;;;6.60;99.90;;;;;;5014060;28;20049;-79
2023/01/15 06:47:47;;;;;;;1999.90;999.90;;;6.70;99.90;;;;;;5021537;28;20041;-79
2023/01/15 06:50:14;;;;;;;1999.90;999.90;;;6.80;99.90;;;;;;5016216;28;20025;-79
2023/01/15 06:52:40;;;;;;;1999.90;999.90;;;6.80;99.90;;;;;;5012600;28;20076;-79
2023/01/15 06:55:06;;;;;;;1999.90;999.90;;;6.90;99.90;;;;;;4994305;28;20022;-78
2023/01/15 06:57:32;;;;;;;1999.90;999.90;;;6.90;99.90;;;;;;5002717;28;20026;-78
2023/01/15 06:59:58;;;;;;;1999.90;999.90;;;6.90;99.90;;;;;;5016520;28;20021;-79
2023/01/15 07:02:23;;;;;;;1999.90;999.90;;;7.20;99.90;;;;;;5013318;28;20072;-78
2023/01/15 07:04:50;;;;;;;1999.90;999.90;;;7.60;99.90;;;;;;5015794;28;20080;-80
2023/01/15 07:07:18;;;;;;;1999.90;999.90;;;7.60;99.90;;;;;;5015707;28;20049;-78
2023/01/15 07:09:43;;;;;;;1999.90;999.90;;;7.50;99.90;;;;;;5015536;28;20489;-79
2023/01/15 07:12:10;;;;;;;1999.90;999.90;;;7.30;99.90;;;;;;5016934;28;20050;-78
2023/01/15 07:14:36;;;;;;;1999.90;999.90;;;7.30;99.90;;;;;;5015270;28;20077;-79
2023/01/15 07:17:02;;;;;;;1999.90;999.90;;;7.30;99.90;;;;;;5013639;28;20045;-79
2023/01/15 07:19:27;;;;;;;1999.90;999.90;;;7.30;99.90;;;;;;5010293;28;20049;-79
2023/01/15 07:21:53;;;;;;;1999.90;999.90;;;7.40;99.90;;;;;;5013441;28;20053;-79
2023/01/15 07:24:19;;;;;;;1999.90;999.90;;;7.40;99.90;;;;;;5013128;28;20034;-79
2023/01/15 07:26:45;;;;;;;1999.90;999.90;;;7.40;99.90;;;;;;5012528;28;20029;-79
2023/01/15 07:29:11;;;;;;;1999.90;999.90;;;7.50;99.90;;;;;;5012554;28;20110;-79
2023/01/15 07:31:36;;;;;;;1999.90;999.90;;;7.40;99.90;;;;;;5011402;28;20029;-79
2023/01/15 07:34:03;;;;;;;1999.90;999.90;;;7.40;99.90;;;;;;5012609;28;20022;-79
2023/01/15 07:36:28;;;;;;;1999.90;999.90;;;7.40;99.90;;;;;;5012645;28;20029;-79
2023/01/15 07:38:54;;;;;;;1999.90;999.90;;;7.40;99.90;;;;;;5012839;28;20416;-78
2023/01/15 07:49:46;;;;;;;1999.90;999.90;;;7.50;99.90;;;;;;5025515;28;20121;-78
2023/01/15 07:52:13;;;;;;;1999.90;999.90;;;7.60;99.90;;;;;;5026691;28;20392;-77
2023/01/15 07:54:39;;;;;;;1999.90;999.90;;;7.60;99.90;;;;;;5025462;28;20489;-78
2023/01/15 07:57:05;;;;;;;1999.90;999.90;;;7.60;99.90;;;;;;5026679;28;20022;-78
2023/01/15 07:59:31;;;;;;;1999.90;999.90;;;7.60;99.90;;;;;;5027475;28;20026;-77
2023/01/15 08:01:56;;;;;;;1999.90;999.90;;;7.70;99.90;;;;;;5026436;28;20045;-78
2023/01/15 08:04:22;;;;;;;1999.90;999.90;;;7.70;99.90;;;;;;5019951;28;20036;-78
2023/01/15 08:06:48;;;;;;;1999.90;999.90;;;7.70;99.90;;;;;;5012050;28;20029;-78
2023/01/15 08:09:13;;;;;;;1999.90;999.90;;;7.70;99.90;;;;;;5012250;28;20444;-78
2023/01/15 08:17:07;;;;;;;1999.90;999.90;;;7.80;99.90;;;;;;5012314;28;20032;-78
2023/01/15 08:19:33;;;;;;;1999.90;999.90;;;7.90;99.90;;;;;;5003643;28;20030;-78
2023/01/15 08:22:00;;;;;;;1999.90;999.90;;;7.90;99.90;;;;;;5011945;28;20049;-79
2023/01/15 08:24:26;;;;;;;1999.90;999.90;;;7.90;99.90;;;;;;5012028;28;20028;-78
2023/01/15 08:26:52;;;;;;;1999.90;999.90;;;8.00;99.90;;;;;;5012031;28;20025;-78
2023/01/15 08:29:18;;;;;;;1999.90;999.90;;;8.10;99.90;;;;;;5011741;28;20034;-78
2023/01/15 08:31:44;;;;;;;1999.90;999.90;;;8.20;99.90;;;;;;5012032;28;20018;-78
2023/01/15 08:34:09;;;;;;;1999.90;999.90;;;8.30;99.90;;;;;;5011931;28;20116;-78
2023/01/15 08:36:35;;;;;;;1999.90;999.90;;;8.40;99.90;;;;;;5011957;28;20101;-78
2023/01/15 08:39:01;;;;;;;1999.90;999.90;;;8.40;99.90;;;;;;5012264;28;20041;-78
2023/01/15 08:41:27;;;;;;;1999.90;999.90;;;8.50;99.90;;;;;;5010420;28;20034;-78
2023/01/15 08:43:52;;;;;;;1999.90;999.90;;;8.60;99.90;;;;;;5011692;28;20033;-78
2023/01/15 08:46:18;;;;;;;1999.90;999.90;;;8.80;99.90;;;;;;5014799;28;20416;-78
2023/01/15 08:48:44;;;;;;;1999.90;999.90;;;9.20;99.90;;;;;;5014310;28;20053;-78
2023/01/15 08:51:10;;;;;;;1999.90;999.90;;;9.50;99.90;;;;;;5014149;28;20065;-78
2023/01/15 08:53:37;;;;;;;1999.90;999.90;;;9.30;99.90;;;;;;5005377;28;20436;-78
2023/01/15 08:56:03;;;;;;;1999.90;999.90;;;9.10;99.90;;;;;;4993262;28;20057;-78
2023/01/15 08:58:30;;;;;;;1999.90;999.90;;;9.00;99.90;;;;;;4995639;28;20026;-78
2023/01/15 09:01:02;;;;;;;1999.90;999.90;;;9.00;99.90;;;;;;4995921;28;20034;-78
2023/01/15 09:03:28;;;;;;;1999.90;999.90;;;9.20;99.90;;;;;;4995752;28;20026;-78
2023/01/15 09:05:56;;;;;;;1999.90;999.90;;;9.50;99.90;;;;;;4995344;28;20053;-78
2023/01/15 09:08:22;;;;;;;1999.90;999.90;;;9.80;99.90;;;;;;4995331;28;20485;-78
2023/01/15 09:10:47;;;;;;;1999.90;999.90;;;10.00;99.90;;;;;;4995581;28;20118;-78
2023/01/15 09:13:13;;;;;;;1999.90;999.90;;;10.10;99.90;;;;;;4995023;28;20031;-78
2023/01/15 09:15:39;;;;;;;1999.90;999.90;;;10.10;99.90;;;;;;4995474;28;20034;-79
2023/01/15 09:18:04;;;;;;;1999.90;999.90;;;10.10;99.90;;;;;;4994451;28;20485;-77
2023/01/15 09:20:30;;;;;;;1999.90;999.90;;;10.10;99.90;;;;;;5008151;28;20583;-78
2023/01/15 09:22:56;;;;;;;1999.90;999.90;;;10.40;99.90;;;;;;5014977;28;20030;-78
2023/01/15 09:25:23;;;;;;;1999.90;999.90;;;10.50;99.90;;;;;;5014475;28;20041;-77
2023/01/15 09:27:49;;;;;;;1999.90;999.90;;;10.30;99.90;;;;;;5014147;28;20029;-78
2023/01/15 09:30:19;;;;;;;1999.90;999.90;;;9.60;99.90;;;;;;5013292;28;20084;-78
2023/01/15 09:32:45;;;;;;;1999.90;999.90;;;9.10;99.90;;;;;;5013633;28;20054;-78
2023/01/15 09:35:11;;;;;;;1999.90;999.90;;;9.10;99.90;;;;;;5013443;28;20049;-78
2023/01/15 09:37:36;;;;;;;1999.90;999.90;;;9.20;99.90;;;;;;5014732;28;20025;-78
2023/01/15 09:40:04;;;;;;;1999.90;999.90;;;9.50;99.90;;;;;;5014666;28;20433;-78
2023/01/15 09:42:40;;;;;;;1999.90;999.90;;;9.90;99.90;;;;;;5014110;28;20416;-78
2023/01/15 09:45:22;;;;;;;1999.90;999.90;;;10.10;99.90;;;;;;5014496;28;20021;-77
2023/01/15 09:47:53;;;;;;;1999.90;999.90;;;10.10;99.90;;;;;;5014045;28;20033;-78
2023/01/15 09:50:46;;;;;;;1999.90;999.90;;;10.20;99.90;;;;;;5013101;28;20064;-78
2023/01/15 09:53:22;;;;;;;1999.90;999.90;;;10.70;99.90;;;;;;5007819;28;20037;-79
2023/01/15 09:55:49;;;;;;;1999.90;999.90;;;10.90;99.90;;;;;;4993421;28;20033;-79
2023/01/15 09:58:18;;;;;;;1999.90;999.90;;;10.90;99.90;;;;;;4993657;28;20392;-78
2023/01/15 10:00:47;;;;;;;1999.90;999.90;;;10.90;99.90;;;;;;4994842;28;20114;-77
2023/01/15 10:03:27;;;;;;;1999.90;999.90;;;11.00;99.90;;;;;;4994567;28;20030;-78
2023/01/15 10:06:14;;;;;;;1999.90;999.90;;;11.10;99.90;;;;;;4994259;28;20105;-78
2023/01/15 10:08:48;;;;;;;1999.90;999.90;;;11.30;99.90;;;;;;4994223;28;20026;-78
2023/01/15 10:11:14;;;;;;;1999.90;999.90;;;11.10;99.90;;;;;;4994416;28;20170;-78
2023/01/15 10:13:58;;;;;;;1999.90;999.90;;;11.00;99.90;;;;;;4994158;28;20040;-77
2023/01/15 10:16:27;;;;;;;1999.90;999.90;;;11.10;99.90;;;;;;4993515;28;20026;-78
2023/01/15 10:18:55;;;;;;;1999.90;999.90;;;11.20;99.90;;;;;;4993649;28;20500;-78
2023/01/15 10:21:41;;;;;;;1999.90;999.90;;;11.30;99.90;;;;;;5010320;28;20049;-77
2023/01/15 10:24:34;;;;;;;1999.90;999.90;;;11.50;99.90;;;;;;5012357;28;20052;-77
2023/01/15 10:27:05;;;;;;;1999.90;999.90;;;11.40;99.90;;;;;;5013333;28;20033;-77
2023/01/15 10:29:35;;;;;;;1999.90;999.90;;;11.40;99.90;;;;;;5013454;28;20038;-78
2023/01/15 10:32:12;;;;;;;1999.90;999.90;;;11.00;99.90;;;;;;5013564;28;20026;-78
2023/01/15 10:34:41;;;;;;;1999.90;999.90;;;10.60;99.90;;;;;;5013582;28;20101;-77
2023/01/15 10:37:32;;;;;;;1999.90;999.90;;;10.50;99.90;;;;;;5013348;28;20030;-78
2023/01/15 10:40:35;;;;;;;1999.90;999.90;;;10.60;99.90;;;;;;5013402;28;20080;-79
2023/01/15 10:43:12;;;;;;;1999.90;999.90;;;10.40;99.90;;;;;;5011868;28;20088;-78
2023/01/15 10:46:09;;;;;;;1999.90;999.90;;;9.70;99.90;;;;;;5013044;28;20033;-77
2023/01/15 10:48:44;;;;;;;1999.90;999.90;;;9.40;99.90;;;;;;5008954;28;20073;-78
2023/01/15 10:51:17;;;;;;;1999.90;999.90;;;9.30;99.90;;;;;;5013349;28;20028;-77
2023/01/15 10:54:17;;;;;;;1999.90;999.90;;;9.40;99.90;;;;;;5002376;28;20094;-79
2023/01/15 10:57:11;;;;;;;1999.90;999.90;;;9.70;99.90;;;;;;4993113;28;20482;-81
2023/01/15 10:59:59;;;;;;;1999.90;999.90;;;10.00;99.90;;;;;;5012881;28;20024;-77
2023/01/15 11:02:38;;;;;;;1999.90;999.90;;;10.20;99.90;;;;;;5012905;28;20481;-76
2023/01/15 11:05:05;;;;;;;1999.90;999.90;;;10.00;99.90;;;;;;5013280;28;20026;-78
2023/01/15 11:07:42;;;;;;;1999.90;999.90;;;9.50;99.90;;;;;;5012391;28;20481;-78
2023/01/15 11:10:16;;;;;;;1999.90;999.90;;;9.20;99.90;;;;;;5012658;28;20018;-77
2023/01/15 11:22:00;;;;;;;1999.90;999.90;;;10.40;99.90;;;;;;5012447;28;20041;-77
2023/01/15 11:24:25;;;;;;;1999.90;999.90;;;10.60;99.90;;;;;;5012641;28;20485;-77
2023/01/15 11:26:53;;;;;;;1999.90;999.90;;;10.60;99.90;;;;;;5012402;28;20036;-77
2023/01/15 11:29:42;;;;;;;1999.90;999.90;;;10.50;99.90;;;;;;5012192;28;20404;-77
2023/01/15 11:32:22;;;;;;;1999.90;999.90;;;10.50;99.90;;;;;;5011781;28;20022;-78
2023/01/15 11:34:59;;;;;;;1999.90;999.90;;;10.40;99.90;;;;;;5011414;28;20107;-77
2023/01/15 11:37:26;;;;;;;1999.90;999.90;;;10.50;99.90;;;;;;5012607;28;20026;-77
2023/01/15 11:40:06;;;;;;;1999.90;999.90;;;10.40;99.90;;;;;;5012322;28;20057;-79
2023/01/15 11:51:14;;;;;;;1999.90;999.90;;;10.40;99.90;;;;;;5012896;28;20052;-78
2023/01/15 11:53:48;;;;;;;1999.90;999.90;;;10.40;99.90;;;;;;5001616;28;20054;-77
2023/01/15 11:56:24;;;;;;;1999.90;999.90;;;11.20;99.90;;;;;;4991575;28;20065;-77
2023/01/15 11:58:53;;;;;;;1999.90;999.90;;;11.20;99.90;;;;;;5010857;28;20029;-76
2023/01/15 12:01:48;;;;;;;1999.90;999.90;;;10.40;99.90;;;;;;5012252;28;20431;-77
2023/01/15 12:04:31;;;;;;;1999.90;999.90;;;10.60;99.90;;;;;;5012294;28;20030;-78
2023/01/15 12:06:58;;;;;;;1999.90;999.90;;;10.70;99.90;;;;;;5012189;28;20025;-77
2023/01/15 12:09:34;;;;;;;1999.90;999.90;;;10.70;99.90;;;;;;5012139;28;20096;-78
2023/01/15 12:12:25;;;;;;;1999.90;999.90;;;10.40;99.90;;;;;;5011551;28;20038;-77
2023/01/15 12:15:09;;;;;;;1999.90;999.90;;;10.20;99.90;;;;;;5012127;28;20030;-77
2023/01/15 12:17:58;;;;;;;1999.90;999.90;;;10.10;99.90;;;;;;5012056;28;20512;-78
2023/01/15 12:20:46;;;;;;;1999.90;999.90;;;9.70;99.90;;;;;;5006961;28;20038;-76
2023/01/15 12:23:23;;;;;;;1999.90;999.90;;;9.50;99.90;;;;;;5016194;28;20026;-77
2023/01/15 12:25:57;;;;;;;1999.90;999.90;;;10.40;99.90;;;;;;5015604;28;20056;-77
2023/01/15 12:28:28;;;;;;;1999.90;999.90;;;11.30;99.90;;;;;;5015563;28;20395;-77
2023/01/15 12:30:54;;;;;;;1999.90;999.90;;;11.10;99.90;;;;;;5016051;28;20503;-77
2023/01/15 12:33:43;;;;;;;1999.90;999.90;;;10.40;99.90;;;;;;5015830;28;20026;-77
2023/01/15 12:36:28;;;;;;;1999.90;999.90;;;10.10;99.90;;;;;;4994220;28;20034;-77
2023/01/15 12:39:20;;;;;;;1999.90;999.90;;;9.60;99.90;;;;;;5015892;28;20022;-77
2023/01/15 12:45:09;;;;;;;1999.90;999.90;;;10.00;99.90;;;;;;5015627;28;20531;-77
2023/01/15 12:47:50;;;;;;;1999.90;999.90;;;10.00;99.90;;;;;;4984492;28;20121;-77
2023/01/15 12:50:44;;;;;;;1999.90;999.90;;;10.40;99.90;;;;;;4995768;28;20362;-77
2023/01/15 12:53:30;;;;;;;1999.90;999.90;;;10.70;99.90;;;;;;4995855;28;20026;-77
2023/01/15 12:55:56;;;;;;;1999.90;999.90;;;10.80;99.90;;;;;;4995786;28;20023;-77
2023/01/15 12:58:39;;;;;;;1999.90;999.90;;;10.90;99.90;;;;;;5008703;28;20029;-77
2023/01/15 13:01:18;;;;;;;1999.90;999.90;;;11.20;99.90;;;;;;5015547;28;20543;-78
2023/01/15 13:04:19;;;;;;;1999.90;999.90;;;11.30;99.90;;;;;;5015351;28;20091;-78
2023/01/15 13:06:53;;;;;;;1999.90;999.90;;;11.50;99.90;;;;;;5014019;28;20439;-77
2023/01/15 13:09:37;;;;;;;1999.90;999.90;;;11.70;99.90;;;;;;5015048;28;20030;-78
2023/01/15 13:12:10;;;;;;;1999.90;999.90;;;11.90;99.90;;;;;;5014494;28;20548;-78
2023/01/15 13:14:36;;;;;;;1999.90;999.90;;;11.70;99.90;;;;;;5014879;28;20026;-78